sensor_id;sensor_type;location;lat;lon;timestamp;pressure;altitude;pressure_sealevel;temperature;humidity
63554;BME280;49699;48.072;7.800;2023-02-26T00:00:26;98919.16;;;1.03;64.64
63554;BME280;49699;48.072;7.800;2023-02-26T00:02:51;98909.84;;;0.99;63.96
63554;BME280;49699;48.072;7.800;2023-02-26T00:05:16;98914.25;;;0.94;64.21
63554;BME280;49699;48.072;7.800;2023-02-26T00:07:42;98914.38;;;0.90;64.16
63554;BME280;49699;48.072;7.800;2023-02-26T00:10:08;98919.63;;;0.85;64.06
63554;BME280;49699;48.072;7.800;2023-02-26T00:12:33;98917.19;;;0.81;64.07
63554;BME280;49699;48.072;7.800;2023-02-26T00:14:59;98924.16;;;0.76;63.97
63554;BME280;49699;48.072;7.800;2023-02-26T00:17:26;98919.94;;;0.73;64.28
63554;BME280;49699;48.072;7.800;2023-02-26T00:19:55;98928.47;;;0.74;64.16
63554;BME280;49699;48.072;7.800;2023-02-26T00:22:20;98931.06;;;0.72;64.18
63554;BME280;49699;48.072;7.800;2023-02-26T00:24:45;98935.31;;;0.73;63.94
63554;BME280;49699;48.072;7.800;2023-02-26T00:27:11;98937.94;;;0.72;64.10
63554;BME280;49699;48.072;7.800;2023-02-26T00:29:36;98935.44;;;0.68;64.23
63554;BME280;49699;48.072;7.800;2023-02-26T00:32:02;98934.72;;;0.63;64.06
63554;BME280;49699;48.072;7.800;2023-02-26T00:34:28;98924.66;;;0.56;64.17
63554;BME280;49699;48.072;7.800;2023-02-26T00:42:09;98936.06;;;0.44;64.52
63554;BME280;49699;48.072;7.800;2023-02-26T00:44:34;98938.72;;;0.40;64.54
63554;BME280;49699;48.072;7.800;2023-02-26T00:47:03;98929.50;;;0.34;64.67
63554;BME280;49699;48.072;7.800;2023-02-26T00:52:19;98928.94;;;0.21;64.84
63554;BME280;49699;48.072;7.800;2023-02-26T00:54:50;98935.06;;;0.16;64.86
63554;BME280;49699;48.072;7.800;2023-02-26T00:57:15;98937.75;;;0.10;64.89
63554;BME280;49699;48.072;7.800;2023-02-26T00:59:41;98947.25;;;0.05;65.28
63554;BME280;49699;48.072;7.800;2023-02-26T01:02:07;98943.91;;;0.01;65.43
63554;BME280;49699;48.072;7.800;2023-02-26T01:04:32;98937.19;;;-0.03;65.47
63554;BME280;49699;48.072;7.800;2023-02-26T01:06:57;98945.78;;;-0.06;65.78
63554;BME280;49699;48.072;7.800;2023-02-26T01:11:50;98951.91;;;-0.13;65.54
63554;BME280;49699;48.072;7.800;2023-02-26T01:14:16;98942.56;;;-0.15;65.96
63554;BME280;49699;48.072;7.800;2023-02-26T01:16:52;98946.88;;;-0.17;65.62
63554;BME280;49699;48.072;7.800;2023-02-26T01:19:26;98936.78;;;-0.22;65.95
63554;BME280;49699;48.072;7.800;2023-02-26T01:22:00;98944.47;;;-0.23;65.81
63554;BME280;49699;48.072;7.800;2023-02-26T01:24:28;98944.56;;;-0.28;65.21
63554;BME280;49699;48.072;7.800;2023-02-26T01:26:54;98944.66;;;-0.32;65.00
63554;BME280;49699;48.072;7.800;2023-02-26T01:29:20;98946.47;;;-0.36;65.33
63554;BME280;49699;48.072;7.800;2023-02-26T01:31:53;98938.81;;;-0.38;65.27
63554;BME280;49699;48.072;7.800;2023-02-26T01:34:34;98948.28;;;-0.41;65.48
63554;BME280;49699;48.072;7.800;2023-02-26T01:39:38;98945.81;;;-0.47;65.41
63554;BME280;49699;48.072;7.800;2023-02-26T01:45:23;98936.50;;;-0.50;65.64
63554;BME280;49699;48.072;7.800;2023-02-26T01:49:53;98932.28;;;-0.52;65.53
63554;BME280;49699;48.072;7.800;2023-02-26T01:55:13;98936.69;;;-0.57;65.57
63554;BME280;49699;48.072;7.800;2023-02-26T01:57:39;98942.69;;;-0.60;65.80
63554;BME280;49699;48.072;7.800;2023-02-26T02:00:05;98946.13;;;-0.61;65.52
63554;BME280;49699;48.072;7.800;2023-02-26T02:02:37;98944.47;;;-0.63;65.40
63554;BME280;49699;48.072;7.800;2023-02-26T02:05:15;98950.44;;;-0.64;65.58
63554;BME280;49699;48.072;7.800;2023-02-26T02:07:44;98940.19;;;-0.63;65.85
63554;BME280;49699;48.072;7.800;2023-02-26T02:10:09;98947.06;;;-0.65;65.51
63554;BME280;49699;48.072;7.800;2023-02-26T02:15:41;98941.28;;;-0.73;65.32
63554;BME280;49699;48.072;7.800;2023-02-26T02:23:29;98951.72;;;-0.85;65.65
63554;BME280;49699;48.072;7.800;2023-02-26T02:28:30;98945.81;;;-0.89;65.74
63554;BME280;49699;48.072;7.800;2023-02-26T02:31:05;98953.56;;;-0.92;65.54
63554;BME280;49699;48.072;7.800;2023-02-26T02:36:11;98954.47;;;-0.94;65.71
63554;BME280;49699;48.072;7.800;2023-02-26T02:38:47;98956.19;;;-0.96;66.05
63554;BME280;49699;48.072;7.800;2023-02-26T02:41:18;98951.97;;;-0.99;66.00
63554;BME280;49699;48.072;7.800;2023-02-26T02:43:46;98965.56;;;-0.97;66.28
63554;BME280;49699;48.072;7.800;2023-02-26T02:46:19;98964.75;;;-0.99;66.11
63554;BME280;49699;48.072;7.800;2023-02-26T02:49:10;98964.72;;;-0.97;66.00
63554;BME280;49699;48.072;7.800;2023-02-26T02:51:38;98959.63;;;-0.97;66.30
63554;BME280;49699;48.072;7.800;2023-02-26T02:54:12;98963.00;;;-0.95;65.97
63554;BME280;49699;48.072;7.800;2023-02-26T02:56:39;98958.78;;;-0.98;66.00
63554;BME280;49699;48.072;7.800;2023-02-26T03:01:39;98964.81;;;-1.03;66.06
63554;BME280;49699;48.072;7.800;2023-02-26T03:04:09;98961.47;;;-1.06;66.38
63554;BME280;49699;48.072;7.800;2023-02-26T03:06:35;98969.19;;;-1.09;66.17
63554;BME280;49699;48.072;7.800;2023-02-26T03:09:02;98970.97;;;-1.12;66.05
63554;BME280;49699;48.072;7.800;2023-02-26T03:11:28;98974.41;;;-1.15;66.26
63554;BME280;49699;48.072;7.800;2023-02-26T03:13:54;98973.59;;;-1.17;66.66
63554;BME280;49699;48.072;7.800;2023-02-26T03:19:00;98980.50;;;-1.23;66.75
63554;BME280;49699;48.072;7.800;2023-02-26T03:21:36;98987.31;;;-1.24;66.77
63554;BME280;49699;48.072;7.800;2023-02-26T03:24:15;98992.50;;;-1.27;66.84
63554;BME280;49699;48.072;7.800;2023-02-26T03:26:47;98981.53;;;-1.32;66.74
63554;BME280;49699;48.072;7.800;2023-02-26T03:29:19;98996.91;;;-1.36;67.09
63554;BME280;49699;48.072;7.800;2023-02-26T03:34:20;98989.34;;;-1.43;67.33
63554;BME280;49699;48.072;7.800;2023-02-26T03:36:56;98992.84;;;-1.47;67.12
63554;BME280;49699;48.072;7.800;2023-02-26T03:39:28;99003.06;;;-1.48;67.63
63554;BME280;49699;48.072;7.800;2023-02-26T03:41:57;99007.34;;;-1.50;67.54
63554;BME280;49699;48.072;7.800;2023-02-26T03:44:27;99004.81;;;-1.52;68.00
63554;BME280;49699;48.072;7.800;2023-02-26T03:46:55;99002.31;;;-1.55;68.22
63554;BME280;49699;48.072;7.800;2023-02-26T03:49:25;99004.06;;;-1.58;67.99
63554;BME280;49699;48.072;7.800;2023-02-26T03:51:53;99010.91;;;-1.60;68.59
63554;BME280;49699;48.072;7.800;2023-02-26T03:54:51;99016.94;;;-1.64;68.52
63554;BME280;49699;48.072;7.800;2023-02-26T03:57:47;99011.03;;;-1.68;68.88
63554;BME280;49699;48.072;7.800;2023-02-26T04:00:30;99015.34;;;-1.71;68.80
63554;BME280;49699;48.072;7.800;2023-02-26T04:03:19;99022.16;;;-1.73;69.18
63554;BME280;49699;48.072;7.800;2023-02-26T04:05:44;99019.66;;;-1.78;69.22
63554;BME280;49699;48.072;7.800;2023-02-26T04:08:12;99017.13;;;-1.78;69.16
63554;BME280;49699;48.072;7.800;2023-02-26T04:10:50;99018.81;;;-1.79;68.93
63554;BME280;49699;48.072;7.800;2023-02-26T04:13:17;99018.03;;;-1.81;69.41
63554;BME280;49699;48.072;7.800;2023-02-26T04:15:43;99022.28;;;-1.81;69.00
63554;BME280;49699;48.072;7.800;2023-02-26T04:18:08;99021.47;;;-1.83;69.19
63554;BME280;49699;48.072;7.800;2023-02-26T04:20:34;99032.53;;;-1.84;69.40
63554;BME280;49699;48.072;7.800;2023-02-26T04:22:59;99039.38;;;-1.88;69.33
63554;BME280;49699;48.072;7.800;2023-02-26T04:25:24;99038.56;;;-1.91;69.69
63554;BME280;49699;48.072;7.800;2023-02-26T04:27:51;99036.06;;;-1.94;69.66
63554;BME280;49699;48.072;7.800;2023-02-26T04:30:17;99036.06;;;-1.96;69.95
63554;BME280;49699;48.072;7.800;2023-02-26T04:32:42;99039.47;;;-1.95;69.97
63554;BME280;49699;48.072;7.800;2023-02-26T04:35:09;99035.28;;;-1.98;69.76
63554;BME280;49699;48.072;7.800;2023-02-26T04:37:35;99035.28;;;-1.98;70.31
63554;BME280;49699;48.072;7.800;2023-02-26T04:40:02;99029.34;;;-1.98;69.74
63554;BME280;49699;48.072;7.800;2023-02-26T04:42:29;99037.78;;;-1.96;69.97
63554;BME280;49699;48.072;7.800;2023-02-26T04:44:54;99036.91;;;-1.94;69.77
63554;BME280;49699;48.072;7.800;2023-02-26T04:47:19;99036.00;;;-1.90;69.25
63554;BME280;49699;48.072;7.800;2023-02-26T04:49:45;99037.66;;;-1.87;68.82
63554;BME280;49699;48.072;7.800;2023-02-26T04:52:11;99043.59;;;-1.85;68.95
63554;BME280;49699;48.072;7.800;2023-02-26T04:54:36;99035.13;;;-1.87;68.87
63554;BME280;49699;48.072;7.800;2023-02-26T04:57:02;99030.06;;;-1.90;68.93
63554;BME280;49699;48.072;7.800;2023-02-26T04:59:27;99030.97;;;-1.94;69.26
63554;BME280;49699;48.072;7.800;2023-02-26T05:01:53;99031.09;;;-2.03;69.42
63554;BME280;49699;48.072;7.800;2023-02-26T05:04:19;99042.19;;;-2.07;69.90
63554;BME280;49699;48.072;7.800;2023-02-26T05:06:48;99041.47;;;-2.16;69.93
63554;BME280;49699;48.072;7.800;2023-02-26T05:09:14;99033.88;;;-2.20;70.21
63554;BME280;49699;48.072;7.800;2023-02-26T05:11:39;99035.63;;;-2.24;70.57
63554;BME280;49699;48.072;7.800;2023-02-26T05:14:06;99050.94;;;-2.28;70.94
63554;BME280;49699;48.072;7.800;2023-02-26T05:16:33;99048.41;;;-2.30;70.76
63554;BME280;49699;48.072;7.800;2023-02-26T05:18:58;99052.69;;;-2.32;71.37
63554;BME280;49699;48.072;7.800;2023-02-26T05:21:23;99050.19;;;-2.33;71.31
63554;BME280;49699;48.072;7.800;2023-02-26T05:23:49;99055.31;;;-2.36;71.13
63554;BME280;49699;48.072;7.800;2023-02-26T05:26:15;99063.81;;;-2.37;71.66
63554;BME280;49699;48.072;7.800;2023-02-26T05:28:40;99057.91;;;-2.39;71.77
63554;BME280;49699;48.072;7.800;2023-02-26T05:31:10;99067.25;;;-2.41;71.82
63554;BME280;49699;48.072;7.800;2023-02-26T05:33:35;99067.25;;;-2.41;71.84
63554;BME280;49699;48.072;7.800;2023-02-26T05:36:01;99063.00;;;-2.41;72.05
63554;BME280;49699;48.072;7.800;2023-02-26T05:38:26;99069.81;;;-2.41;71.86
63554;BME280;49699;48.072;7.800;2023-02-26T05:40:54;99067.25;;;-2.41;71.83
63554;BME280;49699;48.072;7.800;2023-02-26T05:43:19;99080.00;;;-2.43;71.82
63554;BME280;49699;48.072;7.800;2023-02-26T05:45:45;99073.22;;;-2.42;71.57
63554;BME280;49699;48.072;7.800;2023-02-26T05:48:11;99081.72;;;-2.43;71.99
63554;BME280;49699;48.072;7.800;2023-02-26T05:50:37;99082.56;;;-2.43;71.87
63554;BME280;49699;48.072;7.800;2023-02-26T05:53:02;99085.97;;;-2.42;71.89
63554;BME280;49699;48.072;7.800;2023-02-26T05:55:27;99083.41;;;-2.44;71.84
63554;BME280;49699;48.072;7.800;2023-02-26T05:57:53;99083.41;;;-2.42;71.57
63554;BME280;49699;48.072;7.800;2023-02-26T06:00:18;99089.38;;;-2.45;71.89
63554;BME280;49699;48.072;7.800;2023-02-26T06:02:43;99086.00;;;-2.46;71.54
63554;BME280;49699;48.072;7.800;2023-02-26T06:05:09;99090.22;;;-2.45;71.74
63554;BME280;49699;48.072;7.800;2023-02-26T06:07:34;99094.47;;;-2.45;71.72
63554;BME280;49699;48.072;7.800;2023-02-26T06:09:59;99088.53;;;-2.46;71.56
63554;BME280;49699;48.072;7.800;2023-02-26T06:12:24;99089.38;;;-2.45;71.69
63554;BME280;49699;48.072;7.800;2023-02-26T06:14:50;99097.03;;;-2.45;71.70
63554;BME280;49699;48.072;7.800;2023-02-26T06:17:15;99105.53;;;-2.46;71.90
63554;BME280;49699;48.072;7.800;2023-02-26T06:19:40;99111.47;;;-2.46;71.84
63554;BME280;49699;48.072;7.800;2023-02-26T06:22:06;99108.91;;;-2.42;71.55
63554;BME280;49699;48.072;7.800;2023-02-26T06:24:31;99109.72;;;-2.39;71.54
63554;BME280;49699;48.072;7.800;2023-02-26T06:26:56;99119.88;;;-2.37;71.45
63554;BME280;49699;48.072;7.800;2023-02-26T06:29:21;99118.19;;;-2.37;71.19
63554;BME280;49699;48.072;7.800;2023-02-26T06:31:47;99122.41;;;-2.34;71.08
63554;BME280;49699;48.072;7.800;2023-02-26T06:34:13;99130.91;;;-2.34;70.85
63554;BME280;49699;48.072;7.800;2023-02-26T06:36:38;99128.34;;;-2.34;71.25
63554;BME280;49699;48.072;7.800;2023-02-26T06:39:03;99136.00;;;-2.35;70.87
63554;BME280;49699;48.072;7.800;2023-02-26T06:41:29;99144.53;;;-2.39;71.16
63554;BME280;49699;48.072;7.800;2023-02-26T06:43:54;99144.56;;;-2.42;71.13
63554;BME280;49699;48.072;7.800;2023-02-26T06:46:19;99142.88;;;-2.42;71.21
63554;BME280;49699;48.072;7.800;2023-02-26T06:48:45;99146.22;;;-2.38;71.34
63554;BME280;49699;48.072;7.800;2023-02-26T06:51:10;99152.94;;;-2.33;70.96
63554;BME280;49699;48.072;7.800;2023-02-26T06:53:35;99151.25;;;-2.32;71.11
63554;BME280;49699;48.072;7.800;2023-02-26T06:56:01;99158.03;;;-2.30;71.01
63554;BME280;49699;48.072;7.800;2023-02-26T06:58:27;99158.88;;;-2.29;70.79
63554;BME280;49699;48.072;7.800;2023-02-26T07:00:52;99158.00;;;-2.28;71.01
63554;BME280;49699;48.072;7.800;2023-02-26T07:03:18;99152.94;;;-2.30;70.79
63554;BME280;49699;48.072;7.800;2023-02-26T07:05:43;99164.81;;;-2.29;70.64
63554;BME280;49699;48.072;7.800;2023-02-26T07:08:09;99163.94;;;-2.28;70.53
63554;BME280;49699;48.072;7.800;2023-02-26T07:10:34;99169.91;;;-2.27;70.70
63554;BME280;49699;48.072;7.800;2023-02-26T07:13:00;99174.13;;;-2.26;70.57
63554;BME280;49699;48.072;7.800;2023-02-26T07:15:26;99180.06;;;-2.26;70.48
63554;BME280;49699;48.072;7.800;2023-02-26T07:17:51;99171.56;;;-2.23;70.78
63554;BME280;49699;48.072;7.800;2023-02-26T07:20:16;99169.84;;;-2.21;70.60
63554;BME280;49699;48.072;7.800;2023-02-26T07:22:42;99171.53;;;-2.20;70.19
63554;BME280;49699;48.072;7.800;2023-02-26T07:25:08;99174.91;;;-2.17;70.39
63554;BME280;49699;48.072;7.800;2023-02-26T07:27:33;99180.78;;;-2.13;70.00
63554;BME280;49699;48.072;7.800;2023-02-26T07:29:59;99185.84;;;-2.08;70.21
63554;BME280;49699;48.072;7.800;2023-02-26T07:32:24;99179.84;;;-2.03;69.72
63554;BME280;49699;48.072;7.800;2023-02-26T07:34:50;99187.38;;;-1.94;69.08
63554;BME280;49699;48.072;7.800;2023-02-26T07:37:15;99180.44;;;-1.81;68.68
63554;BME280;49699;48.072;7.800;2023-02-26T07:39:40;99181.16;;;-1.70;67.98
63554;BME280;49699;48.072;7.800;2023-02-26T07:42:06;99180.16;;;-1.60;67.46
63554;BME280;49699;48.072;7.800;2023-02-26T07:44:32;99190.19;;;-1.45;67.29
63554;BME280;49699;48.072;7.800;2023-02-26T07:46:57;99186.44;;;-1.21;65.92
63554;BME280;49699;48.072;7.800;2023-02-26T07:49:22;99194.56;;;-0.93;65.53
63554;BME280;49699;48.072;7.800;2023-02-26T07:51:48;99187.38;;;-0.71;64.78
63554;BME280;49699;48.072;7.800;2023-02-26T07:54:13;99183.78;;;-0.59;64.04
63554;BME280;49699;48.072;7.800;2023-02-26T07:56:39;99184.56;;;-0.54;63.61
63554;BME280;49699;48.072;7.800;2023-02-26T07:59:05;99191.31;;;-0.52;63.44
63554;BME280;49699;48.072;7.800;2023-02-26T08:01:30;99184.47;;;-0.50;63.51
63554;BME280;49699;48.072;7.800;2023-02-26T08:03:56;99190.44;;;-0.49;63.11
63554;BME280;49699;48.072;7.800;2023-02-26T08:06:21;99187.03;;;-0.50;63.11
63554;BME280;49699;48.072;7.800;2023-02-26T08:08:46;99189.56;;;-0.48;63.35
63554;BME280;49699;48.072;7.800;2023-02-26T08:11:12;99184.44;;;-0.48;63.29
63554;BME280;49699;48.072;7.800;2023-02-26T08:13:37;99181.88;;;-0.47;62.98
63554;BME280;49699;48.072;7.800;2023-02-26T08:16:02;99185.25;;;-0.45;63.17
63554;BME280;49699;48.072;7.800;2023-02-26T08:18:27;99192.00;;;-0.42;62.95
63554;BME280;49699;48.072;7.800;2023-02-26T08:20:53;99191.19;;;-0.43;62.99
63554;BME280;49699;48.072;7.800;2023-02-26T08:23:18;99186.00;;;-0.40;62.94
63554;BME280;49699;48.072;7.800;2023-02-26T08:25:44;99181.72;;;-0.38;62.32
63554;BME280;49699;48.072;7.800;2023-02-26T08:28:10;99187.69;;;-0.37;62.17
63554;BME280;49699;48.072;7.800;2023-02-26T08:30:35;99177.44;;;-0.37;61.95
63554;BME280;49699;48.072;7.800;2023-02-26T08:33:00;99179.06;;;-0.33;61.55
63554;BME280;49699;48.072;7.800;2023-02-26T08:35:25;99177.28;;;-0.28;60.81
63554;BME280;49699;48.072;7.800;2023-02-26T08:37:51;99189.13;;;-0.24;60.32
63554;BME280;49699;48.072;7.800;2023-02-26T08:40:17;99178.00;;;-0.20;60.43
63554;BME280;49699;48.072;7.800;2023-02-26T08:42:42;99179.56;;;-0.14;59.93
63554;BME280;49699;48.072;7.800;2023-02-26T08:45:07;99176.91;;;-0.08;59.16
63554;BME280;49699;48.072;7.800;2023-02-26T08:47:33;99187.78;;;0.02;58.68
63554;BME280;49699;48.072;7.800;2023-02-26T08:49:58;99189.25;;;0.16;58.18
63554;BME280;49699;48.072;7.800;2023-02-26T08:52:23;99187.91;;;0.39;57.85
63554;BME280;49699;48.072;7.800;2023-02-26T08:54:49;99190.25;;;0.51;57.46
63554;BME280;49699;48.072;7.800;2023-02-26T08:57:14;99196.09;;;0.56;57.26
63554;BME280;49699;48.072;7.800;2023-02-26T08:59:39;99189.22;;;0.58;57.22
63554;BME280;49699;48.072;7.800;2023-02-26T09:02:05;99201.03;;;0.65;57.21
63554;BME280;49699;48.072;7.800;2023-02-26T09:04:30;99202.72;;;0.66;56.79
63554;BME280;49699;48.072;7.800;2023-02-26T09:06:56;99216.47;;;0.60;57.03
63554;BME280;49699;48.072;7.800;2023-02-26T09:09:21;99218.28;;;0.55;57.19
63554;BME280;49699;48.072;7.800;2023-02-26T09:11:46;99206.03;;;0.71;56.77
63554;BME280;49699;48.072;7.800;2023-02-26T09:14:12;99201.91;;;1.02;55.97
63554;BME280;49699;48.072;7.800;2023-02-26T09:16:37;99204.72;;;1.27;55.29
63554;BME280;49699;48.072;7.800;2023-02-26T09:19:04;99204.53;;;1.36;55.04
63554;BME280;49699;48.072;7.800;2023-02-26T09:21:29;99211.31;;;1.39;54.88
63554;BME280;49699;48.072;7.800;2023-02-26T09:23:55;99205.41;;;1.35;54.68
63554;BME280;49699;48.072;7.800;2023-02-26T09:26:20;99205.25;;;1.42;54.40
63554;BME280;49699;48.072;7.800;2023-02-26T09:28:46;99211.88;;;1.50;53.79
63554;BME280;49699;48.072;7.800;2023-02-26T09:31:11;99203.28;;;1.51;52.31
63554;BME280;49699;48.072;7.800;2023-02-26T09:33:36;99203.38;;;1.48;51.85
63554;BME280;49699;48.072;7.800;2023-02-26T09:36:02;99206.88;;;1.44;51.37
63554;BME280;49699;48.072;7.800;2023-02-26T09:38:27;99198.34;;;1.44;51.48
63554;BME280;49699;48.072;7.800;2023-02-26T09:45:43;99211.97;;;1.46;50.79
63554;BME280;49699;48.072;7.800;2023-02-26T09:48:10;99206.94;;;1.43;50.37
63554;BME280;49699;48.072;7.800;2023-02-26T09:50:41;99208.56;;;1.45;50.65
63554;BME280;49699;48.072;7.800;2023-02-26T09:55:42;99203.00;;;1.62;49.55
63554;BME280;49699;48.072;7.800;2023-02-26T09:58:51;99204.63;;;1.66;48.83
63554;BME280;49699;48.072;7.800;2023-02-26T10:01:05;99200.22;;;1.71;48.80
63554;BME280;49699;48.072;7.800;2023-02-26T10:03:43;99211.44;;;1.67;48.26
63554;BME280;49699;48.072;7.800;2023-02-26T10:11:18;99208.84;;;2.01;48.33
63554;BME280;49699;48.072;7.800;2023-02-26T10:13:46;99223.53;;;2.58;47.81
63554;BME280;49699;48.072;7.800;2023-02-26T10:16:15;99213.53;;;3.06;46.24
63554;BME280;49699;48.072;7.800;2023-02-26T10:18:44;99213.84;;;2.95;46.33
63554;BME280;49699;48.072;7.800;2023-02-26T10:21:19;99210.03;;;3.08;46.43
63554;BME280;49699;48.072;7.800;2023-02-26T10:23:50;99210.31;;;2.99;46.21
63554;BME280;49699;48.072;7.800;2023-02-26T10:26:18;99223.34;;;2.65;47.23
63554;BME280;49699;48.072;7.800;2023-02-26T10:28:47;99230.03;;;2.40;48.02
63554;BME280;49699;48.072;7.800;2023-02-26T10:31:26;99227.84;;;2.26;47.97
63554;BME280;49699;48.072;7.800;2023-02-26T10:36:29;99245.13;;;2.20;47.79
63554;BME280;49699;48.072;7.800;2023-02-26T10:39:03;99241.16;;;2.09;48.58
63554;BME280;49699;48.072;7.800;2023-02-26T10:41:35;99250.91;;;1.97;49.35
63554;BME280;49699;48.072;7.800;2023-02-26T10:44:05;99251.22;;;1.83;49.85
63554;BME280;49699;48.072;7.800;2023-02-26T10:46:44;99257.41;;;1.76;50.32
63554;BME280;49699;48.072;7.800;2023-02-26T10:51:49;99257.13;;;2.19;50.10
63554;BME280;49699;48.072;7.800;2023-02-26T10:54:23;99244.59;;;2.39;49.99
63554;BME280;49699;48.072;7.800;2023-02-26T10:56:51;99255.59;;;2.44;49.67
63554;BME280;49699;48.072;7.800;2023-02-26T10:59:16;99244.53;;;2.42;50.21
63554;BME280;49699;48.072;7.800;2023-02-26T11:01:42;99247.22;;;2.38;50.17
63554;BME280;49699;48.072;7.800;2023-02-26T11:04:10;99260.31;;;2.29;50.35
63554;BME280;49699;48.072;7.800;2023-02-26T11:06:37;99260.50;;;2.21;50.63
63554;BME280;49699;48.072;7.800;2023-02-26T11:09:04;99265.88;;;2.14;51.27
63554;BME280;49699;48.072;7.800;2023-02-26T11:11:50;99267.69;;;2.08;52.31
63554;BME280;49699;48.072;7.800;2023-02-26T11:14:15;99265.22;;;2.05;54.35
63554;BME280;49699;48.072;7.800;2023-02-26T11:16:57;99263.56;;;2.03;56.61
63554;BME280;49699;48.072;7.800;2023-02-26T11:19:28;99268.72;;;2.01;58.43
63554;BME280;49699;48.072;7.800;2023-02-26T11:21:54;99275.91;;;1.89;58.90
63554;BME280;49699;48.072;7.800;2023-02-26T11:24:28;99273.91;;;1.66;59.34
63554;BME280;49699;48.072;7.800;2023-02-26T11:26:56;99269.81;;;1.93;59.17
63554;BME280;49699;48.072;7.800;2023-02-26T11:29:21;99263.25;;;2.46;58.24
63554;BME280;49699;48.072;7.800;2023-02-26T11:31:52;99279.81;;;2.96;55.63
63554;BME280;49699;48.072;7.800;2023-02-26T11:34:23;99272.50;;;3.40;53.60
63554;BME280;49699;48.072;7.800;2023-02-26T11:36:48;99270.59;;;3.73;51.71
63554;BME280;49699;48.072;7.800;2023-02-26T11:39:21;99265.34;;;4.01;50.29
63554;BME280;49699;48.072;7.800;2023-02-26T11:41:48;99249.91;;;4.26;49.04
63554;BME280;49699;48.072;7.800;2023-02-26T11:44:14;99251.38;;;4.56;47.63
63554;BME280;49699;48.072;7.800;2023-02-26T11:46:43;99246.03;;;4.62;46.63
63554;BME280;49699;48.072;7.800;2023-02-26T11:49:11;99256.16;;;4.67;46.14
63554;BME280;49699;48.072;7.800;2023-02-26T11:51:38;99249.66;;;4.80;45.89
63554;BME280;49699;48.072;7.800;2023-02-26T11:54:09;99254.91;;;5.00;46.57
63554;BME280;49699;48.072;7.800;2023-02-26T11:56:43;99239.16;;;4.84;47.44
63554;BME280;49699;48.072;7.800;2023-02-26T11:59:19;99250.44;;;4.59;48.04
63554;BME280;49699;48.072;7.800;2023-02-26T12:01:45;99263.69;;;4.25;48.88
63554;BME280;49699;48.072;7.800;2023-02-26T12:04:11;99259.63;;;3.93;49.88
63554;BME280;49699;48.072;7.800;2023-02-26T12:06:37;99257.16;;;3.63;50.79
63554;BME280;49699;48.072;7.800;2023-02-26T12:09:02;99262.75;;;3.49;51.30
63554;BME280;49699;48.072;7.800;2023-02-26T12:11:33;99260.66;;;3.34;51.02
63554;BME280;49699;48.072;7.800;2023-02-26T12:31:54;99248.81;;;2.42;52.12
63554;BME280;49699;48.072;7.800;2023-02-26T12:36:57;99249.38;;;2.52;51.97
63554;BME280;49699;48.072;7.800;2023-02-26T12:56:15;99258.63;;;2.28;52.48
63554;BME280;49699;48.072;7.800;2023-02-26T13:08:34;99275.09;;;2.19;52.48
63554;BME280;49699;48.072;7.800;2023-02-26T13:11:14;99278.69;;;2.14;52.72
63554;BME280;49699;48.072;7.800;2023-02-26T13:24:17;99269.31;;;2.13;53.08
63554;BME280;49699;48.072;7.800;2023-02-26T13:26:45;99262.50;;;2.12;52.94
63554;BME280;49699;48.072;7.800;2023-02-26T13:29:16;99277.91;;;2.12;53.52
63554;BME280;49699;48.072;7.800;2023-02-26T13:34:15;99259.66;;;2.21;51.92
63554;BME280;49699;48.072;7.800;2023-02-26T13:36:43;99260.78;;;2.43;51.27
63554;BME280;49699;48.072;7.800;2023-02-26T13:39:20;99260.63;;;2.78;50.63
63554;BME280;49699;48.072;7.800;2023-02-26T13:41:58;99259.09;;;3.29;49.89
63554;BME280;49699;48.072;7.800;2023-02-26T13:44:29;99264.78;;;3.66;48.80
63554;BME280;49699;48.072;7.800;2023-02-26T13:47:10;99247.16;;;3.80;48.02
63554;BME280;49699;48.072;7.800;2023-02-26T13:52:26;99233.91;;;4.16;47.94
63554;BME280;49699;48.072;7.800;2023-02-26T13:54:52;99235.34;;;4.25;47.43
63554;BME280;49699;48.072;7.800;2023-02-26T14:05:09;99249.31;;;4.42;45.93
63554;BME280;49699;48.072;7.800;2023-02-26T14:10:32;99258.69;;;4.20;46.43
63554;BME280;49699;48.072;7.800;2023-02-26T14:13:10;99264.47;;;4.02;47.20
63554;BME280;49699;48.072;7.800;2023-02-26T14:15:47;99271.22;;;3.79;47.08
63554;BME280;49699;48.072;7.800;2023-02-26T14:18:30;99277.84;;;3.60;47.87
63554;BME280;49699;48.072;7.800;2023-02-26T14:23:43;99260.34;;;3.43;48.69
63554;BME280;49699;48.072;7.800;2023-02-26T14:26:13;99267.22;;;3.43;48.90
63554;BME280;49699;48.072;7.800;2023-02-26T14:28:45;99273.94;;;3.48;49.11
63554;BME280;49699;48.072;7.800;2023-02-26T14:31:20;99272.28;;;3.46;48.74
63554;BME280;49699;48.072;7.800;2023-02-26T14:36:16;99283.47;;;3.45;49.72
63554;BME280;49699;48.072;7.800;2023-02-26T14:38:43;99281.94;;;3.39;50.24
63554;BME280;49699;48.072;7.800;2023-02-26T14:46:30;99284.03;;;2.99;53.22
63554;BME280;49699;48.072;7.800;2023-02-26T14:48:56;99293.75;;;2.88;53.95
63554;BME280;49699;48.072;7.800;2023-02-26T14:54:24;99298.63;;;2.98;54.62
63554;BME280;49699;48.072;7.800;2023-02-26T15:01:46;99305.47;;;3.55;52.64
63554;BME280;49699;48.072;7.800;2023-02-26T15:04:22;99311.91;;;3.68;53.49
63554;BME280;49699;48.072;7.800;2023-02-26T15:07:02;99311.59;;;3.51;54.10
63554;BME280;49699;48.072;7.800;2023-02-26T15:17:36;99306.44;;;3.77;54.19
63554;BME280;49699;48.072;7.800;2023-02-26T15:22:47;99309.06;;;3.49;53.96
63554;BME280;49699;48.072;7.800;2023-02-26T15:25:20;99316.41;;;3.34;53.49
63554;BME280;49699;48.072;7.800;2023-02-26T15:27:50;99315.22;;;3.16;53.62
63554;BME280;49699;48.072;7.800;2023-02-26T15:30:17;99308.06;;;2.98;53.01
63554;BME280;49699;48.072;7.800;2023-02-26T15:32:42;99320.34;;;2.87;53.06
63554;BME280;49699;48.072;7.800;2023-02-26T15:35:17;99315.53;;;2.76;53.48
63554;BME280;49699;48.072;7.800;2023-02-26T15:37:48;99329.41;;;2.69;53.46
63554;BME280;49699;48.072;7.800;2023-02-26T15:40:14;99333.75;;;2.68;53.30
63554;BME280;49699;48.072;7.800;2023-02-26T15:42:40;99321.00;;;2.64;53.48
63554;BME280;49699;48.072;7.800;2023-02-26T15:45:10;99320.31;;;2.57;53.66
63554;BME280;49699;48.072;7.800;2023-02-26T15:47:37;99331.38;;;2.61;53.84
63554;BME280;49699;48.072;7.800;2023-02-26T15:50:03;99324.78;;;2.82;53.42
63554;BME280;49699;48.072;7.800;2023-02-26T15:52:28;99322.41;;;3.05;52.89